Time;durP1;ratioP1;P1;durP2;ratioP2;P2;SDS_P1;SDS_P2;PMS_P1;PMS_P2;Temp;Humidity;BMP_temperature;BMP_pressure;BME280_temperature;BME280_humidity;BME280_pressure;Samples;Min_cycle;Max_cycle;Signal;HPM_P1;HPM_P2
2023/06/14 00:02:20;;;;;;;7.60;5.00;;;;;;;20.73;40.84;101299.78;5324969;27;20031;-67
2023/06/14 00:04:52;;;;;;;6.97;4.73;;;;;;;20.82;41.02;101309.31;5323073;27;20038;-67
2023/06/14 00:07:34;;;;;;;9.45;5.22;;;;;;;20.92;40.53;101309.84;5325430;27;20031;-67
2023/06/14 00:10:06;;;;;;;6.00;4.77;;;;;;;20.60;40.96;101306.56;5323977;27;20110;-67
2023/06/14 00:12:38;;;;;;;9.43;5.20;;;;;;;20.55;41.47;101308.13;5327861;27;20613;-68
2023/06/14 00:15:10;;;;;;;8.95;4.75;;;;;;;20.52;41.56;101308.50;5324993;27;20288;-67
2023/06/14 00:17:41;;;;;;;5.43;4.80;;;;;;;20.53;41.61;101316.31;5327869;27;20406;-68
2023/06/14 00:20:12;;;;;;;7.27;5.20;;;;;;;20.50;41.04;101315.88;5330567;27;20034;-68
2023/06/14 00:22:45;;;;;;;6.30;5.13;;;;;;;20.48;40.88;101307.19;5323769;27;20038;-66
2023/06/14 00:25:16;;;;;;;8.27;5.13;;;;;;;20.46;40.88;101325.19;5329522;27;20037;-66
2023/06/14 00:27:49;;;;;;;6.90;4.53;;;;;;;20.54;40.91;101320.63;5324972;27;20035;-67
2023/06/14 00:30:20;;;;;;;7.40;4.60;;;;;;;20.46;40.59;101317.22;5323691;27;20027;-67
2023/06/14 00:32:52;;;;;;;6.40;4.60;;;;;;;20.44;40.33;101322.69;5330530;27;20265;-67
2023/06/14 00:35:23;;;;;;;7.40;5.10;;;;;;;20.40;40.21;101319.56;5329995;27;20436;-67
2023/06/14 00:37:54;;;;;;;6.27;4.73;;;;;;;20.39;40.26;101317.09;5325257;27;20110;-66
2023/06/14 00:40:26;;;;;;;9.60;4.50;;;;;;;20.30;39.94;101311.03;5318687;27;20131;-67
2023/06/14 00:42:57;;;;;;;8.33;5.03;;;;;;;20.30;39.92;101315.53;5329235;27;20023;-67
2023/06/14 00:45:28;;;;;;;7.67;4.23;;;;;;;20.29;40.17;101313.88;5330284;27;20097;-67
2023/06/14 00:48:00;;;;;;;5.88;4.78;;;;;;;20.14;40.13;101327.97;5327923;27;20486;-67
2023/06/14 00:50:32;;;;;;;6.90;5.00;;;;;;;20.06;40.19;101312.09;5328920;27;20026;-68
2023/06/14 00:53:04;;;;;;;7.20;4.47;;;;;;;20.06;39.99;101317.44;5323186;27;20036;-66
2023/06/14 00:55:35;;;;;;;5.97;4.73;;;;;;;20.11;39.44;101328.34;5319306;22;20055;-70
2023/06/14 00:58:08;;;;;;;8.82;4.85;;;;;;;20.01;39.65;101317.16;5309677;28;20063;-70
2023/06/14 01:00:39;;;;;;;;;;;;;;;20.76;38.13;101323.34;5312808;28;20015;-68
2023/06/14 01:03:12;;;;;;;6.13;4.57;;;;;;;20.05;39.09;101323.75;5312434;28;19922;-68
2023/06/14 01:05:44;;;;;;;5.85;4.65;;;;;;;20.07;39.68;101320.91;5313621;28;20035;-67
2023/06/14 01:08:34;;;;;;;6.00;4.40;;;;;;;20.16;39.11;101327.81;5313444;28;20020;-67
2023/06/14 01:11:14;;;;;;;8.13;5.32;;;;;;;19.96;39.63;101324.00;5311324;28;20027;-70
2023/06/14 01:13:46;;;;;;;7.38;4.18;;;;;;;19.81;39.52;101329.28;5310261;28;20127;-70
2023/06/14 01:16:18;;;;;;;6.20;4.33;;;;;;;19.78;39.80;101319.84;5313659;28;20031;-68
2023/06/14 01:18:56;;;;;;;5.47;4.10;;;;;;;19.82;39.52;101322.97;5314725;28;20288;-70
2023/06/14 01:21:28;;;;;;;6.90;4.22;;;;;;;19.84;39.06;101326.28;5315329;28;20555;-67
2023/06/14 01:23:59;;;;;;;5.70;4.27;;;;;;;19.71;39.13;101321.56;5311001;28;20039;-68
2023/06/14 01:26:30;;;;;;;5.70;4.07;;;;;;;19.75;39.16;101322.03;5315092;28;20046;-72
2023/06/14 01:29:02;;;;;;;4.95;4.15;;;;;;;19.67;39.48;101336.22;5314236;28;20089;-68
2023/06/14 01:31:41;;;;;;;8.68;4.00;;;;;;;19.63;39.08;101325.13;5293694;28;20026;-67
2023/06/14 01:34:12;;;;;;;5.95;3.83;;;;;;;19.61;39.43;101321.75;5313863;28;20028;-67
2023/06/14 01:36:45;;;;;;;5.93;3.87;;;;;;;19.68;38.71;101324.56;5315206;28;20365;-69
2023/06/14 01:39:17;;;;;;;6.97;3.95;;;;;;;19.63;38.57;101326.94;5313415;28;20193;-68
2023/06/14 01:41:50;;;;;;;7.38;3.53;;;;;;;19.57;38.81;101320.47;5313377;28;20027;-71
2023/06/14 01:44:23;;;;;;;6.07;3.88;;;;;;;19.59;38.68;101326.44;5312903;28;20019;-71
2023/06/14 01:46:54;;;;;;;;;;;;;;;20.27;37.27;101321.25;5314787;28;20463;-67
2023/06/14 01:49:26;;;;;;;5.68;3.75;;;;;;;19.56;38.25;101325.97;5313410;28;19911;-69
2023/06/14 01:51:57;;;;;;;6.75;4.38;;;;;;;19.50;38.60;101316.84;5310180;28;20034;-69
2023/06/14 01:54:29;;;;;;;7.65;4.60;;;;;;;19.52;38.44;101314.88;5315278;28;20043;-68
2023/06/14 01:57:00;;;;;;;7.83;4.13;;;;;;;19.48;38.25;101324.19;5313911;28;20042;-68
2023/06/14 01:59:31;;;;;;;6.80;3.97;;;;;;;19.51;38.62;101317.69;5311023;28;20046;-67
2023/06/14 02:02:03;;;;;;;7.13;4.43;;;;;;;19.42;38.66;101314.25;5314241;28;20050;-68
2023/06/14 02:04:34;;;;;;;6.60;3.75;;;;;;;19.40;38.49;101317.13;5314799;28;20037;-71
2023/06/14 02:07:06;;;;;;;7.40;3.73;;;;;;;19.35;38.99;101321.28;5308756;28;20060;-71
2023/06/14 02:09:37;;;;;;;5.53;3.73;;;;;;;19.33;38.72;101323.31;5314289;28;20027;-67
2023/06/14 02:12:09;;;;;;;8.88;3.90;;;;;;;19.31;38.81;101322.63;5314451;28;20027;-70
2023/06/14 02:14:40;;;;;;;8.47;4.13;;;;;;;19.25;39.01;101320.72;5291519;28;20492;-68
2023/06/14 02:17:12;;;;;;;8.20;3.80;;;;;;;19.29;39.14;101320.16;5312780;28;20022;-72
2023/06/14 02:19:43;;;;;;;6.13;3.93;;;;;;;19.24;38.77;101325.16;5311952;28;20222;-67
2023/06/14 02:22:15;;;;;;;8.63;4.10;;;;;;;19.24;39.36;101319.03;5312421;28;20136;-72
2023/06/14 02:24:46;;;;;;;6.18;3.47;;;;;;;19.16;39.34;101322.56;5311789;28;20119;-70
2023/06/14 02:27:18;;;;;;;7.80;4.13;;;;;;;19.11;39.38;101325.75;5313816;28;20539;-71
2023/06/14 02:29:49;;;;;;;6.47;3.97;;;;;;;19.10;39.32;101317.97;5313293;28;20077;-72
2023/06/14 02:32:21;;;;;;;6.88;3.90;;;;;;;19.06;39.51;101325.44;5309379;28;20024;-72
2023/06/14 02:34:53;;;;;;;8.47;3.47;;;;;;;19.09;39.90;101318.94;5312860;28;20498;-67
2023/06/14 02:37:24;;;;;;;6.80;3.70;;;;;;;19.09;39.74;101329.56;5314133;28;20430;-68
2023/06/14 02:39:56;;;;;;;6.10;3.72;;;;;;;18.94;39.95;101332.97;5311294;28;20267;-69
2023/06/14 02:42:27;;;;;;;6.75;4.25;;;;;;;18.97;39.83;101339.75;5311732;28;20041;-67
2023/06/14 02:44:58;;;;;;;6.65;4.07;;;;;;;18.89;40.05;101337.97;5314140;28;20027;-69
2023/06/14 02:47:29;;;;;;;11.13;4.80;;;;;;;18.93;40.31;101333.97;5310323;28;20741;-70
2023/06/14 02:50:01;;;;;;;6.60;3.90;;;;;;;18.89;40.25;101335.31;5312923;28;20128;-72
2023/06/14 02:52:33;;;;;;;5.80;4.05;;;;;;;18.85;40.52;101344.63;5314297;28;20020;-69
2023/06/14 02:55:06;;;;;;;7.70;3.83;;;;;;;18.83;40.26;101343.16;5312295;28;20032;-68
2023/06/14 02:57:37;;;;;;;5.40;3.65;;;;;;;18.77;40.71;101341.16;5289709;28;20399;-69
2023/06/14 03:00:13;;;;;;;5.30;3.80;;;;;;;18.77;40.83;101344.66;5313856;28;20064;-72
2023/06/14 03:02:44;;;;;;;6.65;3.92;;;;;;;18.74;41.11;101336.19;5316877;28;20039;-70
2023/06/14 03:05:15;;;;;;;5.22;3.70;;;;;;;18.79;40.97;101337.34;5313403;28;20038;-68
2023/06/14 03:07:47;;;;;;;6.37;3.50;;;;;;;18.65;41.21;101346.81;5318694;28;20388;-70
2023/06/14 03:10:18;;;;;;;6.70;3.50;;;;;;;18.62;41.17;101346.34;5317677;28;20062;-68
2023/06/14 03:12:51;;;;;;;7.28;4.00;;;;;;;18.62;41.17;101347.16;5317665;28;20154;-68
2023/06/14 03:15:24;;;;;;;5.70;3.80;;;;;;;18.53;40.93;101345.53;5301559;28;20372;-73
2023/06/14 03:17:55;;;;;;;;;;;;;;;19.18;39.88;101353.28;5317839;28;20495;-68
2023/06/14 03:20:28;;;;;;;5.57;3.03;;;;;;;18.55;41.38;101348.00;5316843;28;19916;-71
2023/06/14 03:23:01;;;;;;;6.90;4.13;;;;;;;18.55;41.75;101353.31;5314575;28;20273;-68
2023/06/14 03:25:38;;;;;;;9.60;4.07;;;;;;;18.44;41.66;101354.50;5298209;28;20031;-67
2023/06/14 03:28:09;;;;;;;5.68;4.00;;;;;;;18.40;41.99;101354.00;5314901;28;20067;-71
2023/06/14 03:30:42;;;;;;;5.82;4.10;;;;;;;18.45;42.09;101362.31;5315482;28;20111;-69
2023/06/14 03:33:13;;;;;;;6.20;3.88;;;;;;;18.46;42.06;101357.81;5314917;28;20031;-69
2023/06/14 03:35:45;;;;;;;6.43;4.05;;;;;;;18.43;42.12;101347.53;5315263;28;20373;-68
2023/06/14 03:38:16;;;;;;;7.90;4.25;;;;;;;18.39;41.88;101352.34;5317448;28;20519;-69
2023/06/14 03:40:47;;;;;;;8.90;4.20;;;;;;;18.34;42.29;101370.59;5315787;28;20048;-69
2023/06/14 03:43:18;;;;;;;7.50;4.18;;;;;;;18.38;42.38;101363.16;5312094;28;20068;-68
2023/06/14 03:45:50;;;;;;;10.18;4.30;;;;;;;18.29;42.67;101369.44;5317442;28;20562;-69
2023/06/14 03:48:21;;;;;;;6.95;3.95;;;;;;;18.22;43.04;101369.28;5317205;28;20025;-68
2023/06/14 03:50:54;;;;;;;7.10;3.90;;;;;;;18.32;42.82;101371.75;5314107;28;20567;-69
2023/06/14 03:53:28;;;;;;;7.85;3.78;;;;;;;18.20;43.30;101366.81;5312580;28;20028;-68
2023/06/14 03:55:59;;;;;;;10.18;3.78;;;;;;;18.21;43.30;101373.75;5315210;28;20039;-71
2023/06/14 03:58:31;;;;;;;5.40;3.72;;;;;;;18.24;43.59;101373.44;5312195;28;20392;-70
2023/06/14 04:01:03;;;;;;;7.05;3.60;;;;;;;18.24;43.42;101380.56;5316745;28;20020;-68
2023/06/14 04:03:34;;;;;;;8.15;4.15;;;;;;;18.19;43.65;101378.41;5296247;28;20500;-68
2023/06/14 04:06:06;;;;;;;5.85;3.47;;;;;;;18.18;43.73;101387.38;5316527;28;20510;-68
2023/06/14 04:08:39;;;;;;;6.78;3.80;;;;;;;18.24;44.14;101384.03;5314964;28;20510;-68
2023/06/14 04:11:11;;;;;;;7.85;4.00;;;;;;;18.13;44.23;101384.38;5312516;28;20081;-67
2023/06/14 04:13:42;;;;;;;6.13;4.00;;;;;;;18.17;44.07;101380.38;5313054;28;20019;-69
2023/06/14 04:16:13;;;;;;;5.25;4.15;;;;;;;18.14;44.25;101383.38;5315359;28;20027;-68
2023/06/14 04:18:46;;;;;;;7.90;3.80;;;;;;;18.23;43.83;101390.34;5314278;28;20016;-68
2023/06/14 04:21:18;;;;;;;6.25;4.25;;;;;;;18.21;43.97;101387.00;5312536;28;20437;-68
2023/06/14 04:23:52;;;;;;;7.53;4.43;;;;;;;18.27;44.02;101384.72;5310019;28;20027;-72
2023/06/14 04:26:26;;;;;;;4.63;3.70;;;;;;;18.27;44.22;101392.66;5314003;28;20479;-72
2023/06/14 04:29:01;;;;;;;10.20;4.07;;;;;;;18.20;44.85;101388.03;5316710;28;20016;-70
2023/06/14 04:31:39;;;;;;;6.03;4.00;;;;;;;18.21;44.44;101389.66;5294116;28;20020;-70
2023/06/14 04:34:16;;;;;;;9.35;4.50;;;;;;;18.15;44.38;101390.34;5308018;28;20448;-69
2023/06/14 04:36:52;;;;;;;5.97;4.07;;;;;;;18.19;44.50;101393.50;5316434;28;20023;-70
2023/06/14 04:39:25;;;;;;;9.30;4.28;;;;;;;18.19;44.78;101394.31;5312984;28;20452;-68
2023/06/14 04:41:56;;;;;;;9.50;4.38;;;;;;;18.24;44.60;101399.94;5314356;28;20536;-70
2023/06/14 04:44:31;;;;;;;7.75;4.07;;;;;;;18.29;44.53;101394.13;5316629;28;20032;-68
2023/06/14 04:47:02;;;;;;;13.90;4.43;;;;;;;18.30;44.80;101400.31;5311929;28;20085;-70
2023/06/14 04:49:34;;;;;;;7.40;4.45;;;;;;;18.24;44.82;101394.66;5311282;28;20023;-70
2023/06/14 04:52:06;;;;;;;7.18;4.35;;;;;;;18.33;45.13;101397.28;5313883;28;20047;-68
2023/06/14 04:54:37;;;;;;;7.72;4.13;;;;;;;18.37;44.89;101402.13;5315981;28;20039;-69
2023/06/14 04:57:13;;;;;;;6.95;4.60;;;;;;;18.36;44.65;101404.91;5312788;28;20028;-69
2023/06/14 04:59:44;;;;;;;7.63;4.40;;;;;;;18.35;44.71;101398.78;5293429;28;20055;-73
2023/06/14 05:02:16;;;;;;;6.28;3.90;;;;;;;18.44;45.18;101404.91;5314318;28;20036;-67
2023/06/14 05:04:47;;;;;;;8.02;4.30;;;;;;;18.50;44.55;101406.06;5314897;28;20027;-68
2023/06/14 05:07:19;;;;;;;6.80;4.30;;;;;;;18.47;44.56;101400.09;5308692;28;20054;-69
2023/06/14 05:09:50;;;;;;;10.50;4.82;;;;;;;18.53;45.31;101411.88;5304871;28;20506;-71
2023/06/14 05:12:23;;;;;;;6.80;4.05;;;;;;;18.57;44.78;101407.88;5299578;28;20106;-71
2023/06/14 05:14:54;;;;;;;5.90;4.22;;;;;;;18.59;45.46;101403.22;5294606;28;20043;-71
2023/06/14 05:17:27;;;;;;;7.15;4.60;;;;;;;18.62;44.87;101418.81;5311321;28;20023;-68
2023/06/14 05:19:59;;;;;;;6.63;4.32;;;;;;;18.63;45.69;101412.50;5304441;28;20859;-71
2023/06/14 05:22:30;;;;;;;6.13;4.45;;;;;;;18.70;45.52;101413.50;5297564;28;20036;-68
2023/06/14 05:25:02;;;;;;;13.40;4.80;;;;;;;18.74;44.90;101413.19;5296425;28;20027;-69
2023/06/14 05:27:35;;;;;;;8.18;4.88;;;;;;;18.76;45.17;101414.69;5310222;28;20027;-68
2023/06/14 05:30:08;;;;;;;8.32;4.53;;;;;;;18.73;45.05;101408.88;5312828;28;20027;-68
2023/06/14 05:32:39;;;;;;;7.40;4.40;;;;;;;18.83;45.00;101413.00;5291799;28;20492;-68
2023/06/14 05:35:10;;;;;;;6.90;4.43;;;;;;;18.88;45.46;101409.81;5304799;28;20058;-69
2023/06/14 05:37:41;;;;;;;8.20;4.68;;;;;;;18.92;44.83;101413.78;5307436;28;20031;-68
2023/06/14 05:40:13;;;;;;;8.82;4.32;;;;;;;19.04;45.13;101422.22;5309886;28;20027;-71
2023/06/14 05:42:44;;;;;;;7.95;4.38;;;;;;;19.10;45.21;101426.84;5310370;28;20027;-72
2023/06/14 05:45:15;;;;;;;8.30;4.60;;;;;;;19.15;44.76;101432.47;5309394;28;20023;-68
2023/06/14 05:47:47;;;;;;;8.68;5.15;;;;;;;19.16;44.41;101436.78;5306954;28;20548;-69
2023/06/14 05:50:18;;;;;;;7.05;4.13;;;;;;;19.25;44.82;101433.09;5309879;28;20023;-68
2023/06/14 05:52:49;;;;;;;7.72;4.03;;;;;;;19.28;44.44;101432.75;5308499;28;20027;-68
2023/06/14 05:55:21;;;;;;;9.85;4.43;;;;;;;19.34;44.57;101431.22;5309061;28;20105;-69
2023/06/14 05:57:52;;;;;;;7.20;4.30;;;;;;;19.39;44.62;101424.38;5310812;28;20124;-71
2023/06/14 06:00:24;;;;;;;8.45;4.13;;;;;;;19.50;44.71;101440.94;5308053;28;20486;-68
2023/06/14 06:02:57;;;;;;;8.17;4.33;;;;;;;19.56;44.63;101438.44;5307999;28;20059;-70
2023/06/14 06:05:28;;;;;;;6.95;4.18;;;;;;;19.65;44.62;101444.53;5310606;28;20469;-69
2023/06/14 06:08:00;;;;;;;6.07;4.63;;;;;;;19.71;44.52;101443.03;5309176;28;20055;-71
2023/06/14 06:10:31;;;;;;;6.00;4.03;;;;;;;19.74;44.15;101440.03;5289173;28;20019;-71
2023/06/14 06:13:02;;;;;;;9.40;3.65;;;;;;;19.86;44.25;101441.28;5309727;28;20317;-70
2023/06/14 06:15:36;;;;;;;9.67;4.40;;;;;;;19.96;43.67;101439.19;5307969;28;20031;-70
2023/06/14 06:18:07;;;;;;;6.75;3.90;;;;;;;20.04;43.78;101449.78;5309374;28;20027;-70
2023/06/14 06:20:38;;;;;;;6.30;3.50;;;;;;;20.12;43.26;101431.09;5308564;28;20028;-71
2023/06/14 06:23:09;;;;;;;8.23;3.67;;;;;;;20.33;42.76;101454.38;5305025;28;20044;-70
2023/06/14 06:25:41;;;;;;;8.40;4.20;;;;;;;20.52;42.25;101457.56;5307890;28;20053;-70
2023/06/14 06:28:12;;;;;;;6.47;3.50;;;;;;;20.59;42.57;101461.16;5307071;28;20034;-72
2023/06/14 06:30:43;;;;;;;12.43;4.63;;;;;;;20.68;41.75;101451.25;5302264;28;20480;-72
2023/06/14 06:33:15;;;;;;;8.57;3.72;;;;;;;20.83;41.67;101460.09;5303806;28;20099;-70
2023/06/14 06:35:46;;;;;;;15.03;4.67;;;;;;;20.93;41.65;101463.31;5309048;28;20026;-69
2023/06/14 06:38:18;;;;;;;5.37;3.60;;;;;;;21.05;41.00;101453.03;5304980;28;20023;-70
2023/06/14 06:40:49;;;;;;;4.95;3.25;;;;;;;21.26;40.88;101468.28;5308274;28;20093;-71
2023/06/14 06:43:22;;;;;;;5.22;3.65;;;;;;;21.40;40.06;101471.97;5308869;28;20057;-71
2023/06/14 06:45:53;;;;;;;7.17;3.90;;;;;;;21.57;40.38;101473.41;5306927;28;20023;-71
2023/06/14 06:48:24;;;;;;;8.00;3.53;;;;;;;21.66;39.25;101482.13;5289374;28;20583;-71
2023/06/14 06:50:56;;;;;;;6.80;3.57;;;;;;;21.79;38.69;101482.28;5306816;28;20104;-70
2023/06/14 06:53:27;;;;;;;7.50;3.53;;;;;;;21.99;39.15;101482.47;5308429;28;20020;-71
2023/06/14 06:55:58;;;;;;;7.27;3.57;;;;;;;22.06;38.53;101481.53;5308635;28;20056;-69
2023/06/14 06:58:30;;;;;;;6.70;4.27;;;;;;;22.25;38.33;101481.94;5307542;28;20023;-69
2023/06/14 07:01:01;;;;;;;6.10;3.33;;;;;;;22.38;38.85;101487.38;5305590;28;20076;-69
2023/06/14 07:03:33;;;;;;;6.50;3.30;;;;;;;22.43;38.57;101485.00;5309007;28;20034;-69
2023/06/14 07:06:04;;;;;;;6.83;3.47;;;;;;;22.55;37.56;101490.63;5307442;28;20114;-70
2023/06/14 07:08:35;;;;;;;7.50;3.70;;;;;;;22.67;37.89;101488.25;5304227;28;20071;-69
2023/06/14 07:11:07;;;;;;;5.87;3.43;;;;;;;22.87;37.57;101483.84;5308213;28;20024;-70
2023/06/14 07:13:38;;;;;;;6.33;3.67;;;;;;;22.87;37.49;101494.53;5306303;28;20036;-70
2023/06/14 07:16:09;;;;;;;9.27;3.90;;;;;;;23.14;37.32;101500.09;5309546;28;20879;-70
2023/06/14 07:18:41;;;;;;;5.40;3.30;;;;;;;23.19;37.12;101503.84;5305324;28;20070;-70
2023/06/14 07:21:12;;;;;;;7.07;3.10;;;;;;;23.26;36.69;101501.19;5307279;28;20655;-69
2023/06/14 07:23:43;;;;;;;9.53;3.30;;;;;;;23.37;36.56;101500.63;5308271;28;20484;-70
2023/06/14 07:26:15;;;;;;;6.27;3.50;;;;;;;23.45;36.15;101504.97;5309629;28;20728;-70
2023/06/14 07:28:47;;;;;;;7.80;3.20;;;;;;;23.75;35.94;101505.53;5306142;28;20015;-70
2023/06/14 07:31:19;;;;;;;6.25;3.10;;;;;;;23.83;35.69;101507.19;5301415;28;20077;-70
2023/06/14 07:33:50;;;;;;;5.93;3.20;;;;;;;23.86;35.46;101512.97;5303723;28;20515;-70
2023/06/14 07:36:22;;;;;;;7.60;4.13;;;;;;;23.96;35.82;101515.28;5305325;28;20035;-70
2023/06/14 07:38:53;;;;;;;6.10;3.03;;;;;;;24.23;35.45;101513.47;5309095;28;20020;-70
2023/06/14 07:41:25;;;;;;;6.50;3.23;;;;;;;24.11;34.77;101523.97;5310265;28;20296;-70
2023/06/14 07:43:56;;;;;;;5.00;2.70;;;;;;;24.32;34.40;101517.63;5313226;28;20114;-70
2023/06/14 07:46:28;;;;;;;5.17;2.77;;;;;;;24.51;35.03;101521.38;5314847;28;20132;-70
2023/06/14 07:48:59;;;;;;;6.37;3.03;;;;;;;24.57;34.82;101517.84;5308424;28;20039;-70
2023/06/14 07:51:31;;;;;;;5.13;3.00;;;;;;;24.55;34.59;101522.59;5311891;28;20141;-70
2023/06/14 07:54:03;;;;;;;7.83;3.20;;;;;;;24.69;33.89;101524.22;5312028;28;20067;-70
2023/06/14 07:56:35;;;;;;;7.00;3.30;;;;;;;24.70;32.97;101531.25;5309358;28;20036;-70
2023/06/14 07:59:07;;;;;;;7.40;2.78;;;;;;;24.76;33.20;101527.72;5311481;28;20070;-70
2023/06/14 08:01:39;;;;;;;7.15;2.90;;;;;;;24.97;33.22;101533.91;5314042;28;20138;-70
2023/06/14 08:04:11;;;;;;;8.40;3.10;;;;;;;24.85;32.80;101543.59;5308516;28;20411;-70
2023/06/14 08:06:45;;;;;;;7.93;3.03;;;;;;;24.95;33.64;101541.31;5309637;28;20035;-70
2023/06/14 08:09:16;;;;;;;4.47;2.72;;;;;;;25.09;33.50;101547.50;5310697;28;20447;-69
2023/06/14 08:11:48;;;;;;;8.70;2.90;;;;;;;25.11;32.84;101542.78;5309531;28;20022;-70
2023/06/14 08:14:19;;;;;;;4.67;2.60;;;;;;;25.28;31.67;101543.97;5310953;28;20313;-71
2023/06/14 08:16:50;;;;;;;6.53;2.53;;;;;;;25.28;30.85;101538.63;5312743;28;20140;-71
2023/06/14 08:19:22;;;;;;;7.50;2.70;;;;;;;25.37;30.81;101537.34;5311585;28;20016;-71
2023/06/14 08:21:55;;;;;;;6.37;2.73;;;;;;;25.43;30.60;101536.50;5311217;28;20039;-70
2023/06/14 08:24:29;;;;;;;6.97;2.35;;;;;;;25.32;30.59;101530.97;5309346;28;20384;-71
2023/06/14 08:27:01;;;;;;;5.57;2.42;;;;;;;25.51;30.67;101540.00;5310985;28;20030;-71
2023/06/14 08:29:32;;;;;;;4.28;2.78;;;;;;;25.66;30.85;101540.53;5309505;28;20902;-71
2023/06/14 08:32:03;;;;;;;7.23;2.67;;;;;;;25.79;30.43;101534.31;5291062;28;20030;-71
2023/06/14 08:34:35;;;;;;;5.30;2.53;;;;;;;25.94;30.32;101527.63;5310580;28;20022;-71
2023/06/14 08:37:06;;;;;;;9.37;2.60;;;;;;;25.89;29.91;101530.13;5311373;28;20106;-71
2023/06/14 08:39:37;;;;;;;5.50;2.27;;;;;;;26.08;29.90;101523.00;5306070;28;20028;-70
2023/06/14 08:42:10;;;;;;;7.33;2.83;;;;;;;26.13;29.85;101535.78;5309958;28;20024;-71
2023/06/14 08:44:41;;;;;;;7.97;2.60;;;;;;;26.23;29.83;101540.69;5311856;28;20035;-70
2023/06/14 08:47:15;;;;;;;5.53;2.40;;;;;;;26.33;29.79;101543.69;5305163;28;20031;-70
2023/06/14 08:49:47;;;;;;;4.95;2.53;;;;;;;26.50;30.00;101538.66;5309567;28;20080;-70
2023/06/14 08:52:22;;;;;;;3.60;2.25;;;;;;;26.59;29.56;101537.31;5306817;28;20039;-70
2023/06/14 08:54:53;;;;;;;7.38;2.75;;;;;;;26.53;29.53;101536.34;5305730;28;20048;-68
2023/06/14 08:57:27;;;;;;;4.50;2.53;;;;;;;26.72;29.43;101531.03;5309551;28;20392;-69
2023/06/14 09:00:01;;;;;;;7.22;2.25;;;;;;;26.83;28.90;101539.19;5307678;28;20451;-69
2023/06/14 09:02:35;;;;;;;5.70;2.60;;;;;;;26.79;28.15;101538.00;5310238;28;20023;-68
2023/06/14 09:05:07;;;;;;;5.85;2.20;;;;;;;26.76;27.53;101541.13;5307408;28;20031;-68
2023/06/14 09:07:41;;;;;;;6.45;2.00;;;;;;;26.75;28.61;101542.16;5309493;28;20084;-68
2023/06/14 09:10:14;;;;;;;10.43;2.00;;;;;;;26.88;27.54;101543.91;5310240;28;20028;-68
2023/06/14 09:12:47;;;;;;;5.45;1.90;;;;;;;26.90;26.57;101553.41;5305725;28;20039;-68
2023/06/14 09:15:18;;;;;;;2.78;1.75;;;;;;;26.97;26.09;101536.34;5309483;28;20420;-68
2023/06/14 09:17:49;;;;;;;5.70;2.00;;;;;;;26.96;26.00;101545.47;5307093;28;20735;-68
2023/06/14 09:20:20;;;;;;;4.43;1.97;;;;;;;26.90;26.03;101537.25;5307522;28;20031;-68
2023/06/14 09:22:53;;;;;;;4.53;2.00;;;;;;;27.22;27.03;101541.72;5306727;28;20027;-69
2023/06/14 09:25:24;;;;;;;3.97;1.90;;;;;;;27.31;25.94;101541.19;5310920;28;20031;-69
2023/06/14 09:27:56;;;;;;;7.50;1.97;;;;;;;27.71;26.27;101538.03;5309442;28;20035;-68
2023/06/14 09:30:28;;;;;;;5.53;1.80;;;;;;;27.53;25.63;101533.47;5305739;28;20051;-68
2023/06/14 09:32:59;;;;;;;4.07;1.55;;;;;;;27.72;25.41;101536.97;5308450;28;20088;-68
2023/06/14 09:35:34;;;;;;;4.40;2.10;;;;;;;27.74;25.47;101540.31;5310189;28;20059;-69
2023/06/14 09:38:06;;;;;;;4.05;1.67;;;;;;;27.81;25.36;101549.13;5310507;28;20031;-68
2023/06/14 09:40:38;;;;;;;3.80;1.55;;;;;;;27.85;23.23;101542.22;5289188;28;20015;-68
2023/06/14 09:43:09;;;;;;;5.63;1.57;;;;;;;27.93;22.84;101549.16;5307719;28;20570;-68
2023/06/14 09:45:41;;;;;;;4.60;1.37;;;;;;;28.00;23.13;101551.78;5309311;28;20062;-69
2023/06/14 09:48:17;;;;;;;4.47;1.40;;;;;;;28.09;22.91;101545.00;5301650;28;20024;-69
2023/06/14 09:50:50;;;;;;;4.13;1.42;;;;;;;28.04;22.69;101547.56;5307463;28;20035;-69
2023/06/14 09:53:24;;;;;;;2.20;1.40;;;;;;;28.32;23.51;101557.72;5309556;28;20031;-69
2023/06/14 09:55:57;;;;;;;1.90;1.15;;;;;;;28.00;22.86;101562.56;5307399;28;20036;-70
2023/06/14 09:58:30;;;;;;;2.88;0.90;;;;;;;28.30;22.98;101552.56;5304915;28;20388;-69
2023/06/14 10:01:03;;;;;;;1.65;1.05;;;;;;;28.17;22.83;101547.34;5305325;28;20033;-69
2023/06/14 10:03:34;;;;;;;;;;;;;;;29.02;22.33;101548.94;5308632;28;20038;-69
2023/06/14 10:06:08;;;;;;;3.40;0.93;;;;;;;28.53;23.08;101542.91;5306419;28;19924;-69
2023/06/14 10:08:40;;;;;;;4.53;1.30;;;;;;;28.34;22.66;101545.66;5309446;28;20028;-69
2023/06/14 10:11:13;;;;;;;2.03;1.00;;;;;;;28.47;22.51;101544.66;5306439;28;20016;-69
2023/06/14 10:13:45;;;;;;;2.50;1.27;;;;;;;28.52;22.69;101541.25;5304094;28;20127;-69
2023/06/14 10:16:26;;;;;;;2.53;1.35;;;;;;;29.04;23.00;101542.22;5308258;28;20472;-69
2023/06/14 10:19:14;;;;;;;3.20;1.43;;;;;;;28.95;22.68;101534.72;5308707;28;20146;-69
2023/06/14 10:22:01;;;;;;;3.55;1.15;;;;;;;29.04;22.80;101546.81;5309363;28;20089;-69
2023/06/14 10:24:35;;;;;;;4.70;1.42;;;;;;;28.80;21.94;101533.31;5306173;28;20096;-69
2023/06/14 10:27:11;;;;;;;2.80;1.25;;;;;;;28.92;22.15;101538.69;5310006;28;20023;-69
2023/06/14 10:29:55;;;;;;;2.10;1.23;;;;;;;29.04;22.23;101536.84;5301561;28;20020;-69
2023/06/14 10:32:30;;;;;;;3.65;1.55;;;;;;;29.01;23.06;101540.00;5307164;28;20146;-69
2023/06/14 10:35:06;;;;;;;3.25;1.40;;;;;;;29.08;22.14;101547.97;5308814;28;20384;-69
2023/06/14 10:37:37;;;;;;;2.83;1.52;;;;;;;28.81;22.71;101555.69;5310270;28;21097;-69
2023/06/14 10:40:29;;;;;;;3.43;1.17;;;;;;;28.84;22.25;101541.75;5308940;28;20124;-70
2023/06/14 10:43:00;;;;;;;2.72;1.20;;;;;;;28.78;21.92;101543.50;5307002;28;21223;-69
2023/06/14 10:45:31;;;;;;;2.77;1.20;;;;;;;28.90;21.67;101543.50;5292711;28;20035;-69
2023/06/14 10:48:04;;;;;;;2.90;1.30;;;;;;;28.86;22.20;101528.84;5306375;28;20466;-69
2023/06/14 10:50:35;;;;;;;4.18;1.35;;;;;;;28.96;22.12;101542.56;5303976;28;20008;-69
2023/06/14 10:53:23;;;;;;;6.03;1.67;;;;;;;29.40;22.53;101547.56;5308585;28;20409;-69
2023/06/14 10:55:56;;;;;;;2.88;1.60;;;;;;;29.18;22.31;101542.00;5308092;28;20413;-69
2023/06/14 10:58:27;;;;;;;4.75;1.50;;;;;;;28.90;21.70;101542.66;5307902;28;20027;-69
2023/06/14 11:00:59;;;;;;;2.23;1.30;;;;;;;28.96;22.23;101547.97;5307972;28;20047;-69
2023/06/14 11:03:51;;;;;;;2.38;1.25;;;;;;;29.12;22.45;101548.31;5307171;28;20032;-69
2023/06/14 11:06:28;;;;;;;2.27;1.40;;;;;;;28.67;22.24;101555.09;5311128;28;20266;-69
2023/06/14 11:09:14;;;;;;;3.00;1.67;;;;;;;29.18;23.00;101540.13;5308762;28;20720;-69
2023/06/14 11:11:46;;;;;;;3.38;1.50;;;;;;;29.23;23.03;101545.59;5307213;28;20069;-69
2023/06/14 11:14:17;;;;;;;2.03;1.27;;;;;;;29.53;21.77;101540.03;5309904;28;20380;-69
2023/06/14 11:16:50;;;;;;;2.35;1.40;;;;;;;29.33;21.96;101535.03;5308613;28;20111;-69
2023/06/14 11:19:21;;;;;;;5.18;1.40;;;;;;;29.31;21.71;101547.13;5313870;28;20034;-69
2023/06/14 11:21:53;;;;;;;3.70;1.58;;;;;;;29.35;22.34;101534.78;5310891;28;20349;-69
2023/06/14 11:24:24;;;;;;;5.90;1.40;;;;;;;29.28;22.94;101532.25;5313655;28;20817;-70
2023/06/14 11:26:57;;;;;;;5.67;1.53;;;;;;;29.50;23.40;101531.56;5310735;28;20023;-69
2023/06/14 11:29:29;;;;;;;3.10;1.50;;;;;;;29.51;22.45;101523.25;5313575;28;20043;-70
2023/06/14 11:32:00;;;;;;;2.75;1.50;;;;;;;29.61;22.19;101524.53;5311986;28;20102;-69
2023/06/14 11:34:31;;;;;;;4.13;1.50;;;;;;;29.71;22.47;101530.97;5312279;28;20027;-70
2023/06/14 11:37:03;;;;;;;4.80;1.77;;;;;;;29.92;22.31;101534.84;5310104;28;20031;-70
2023/06/14 11:39:35;;;;;;;3.23;1.30;;;;;;;29.96;22.41;101527.06;5313847;28;20030;-70
2023/06/14 11:42:06;;;;;;;3.35;1.48;;;;;;;30.00;22.68;101520.13;5311513;28;20558;-69
2023/06/14 11:44:38;;;;;;;4.30;1.43;;;;;;;30.36;22.74;101527.00;5312695;28;20521;-70
2023/06/14 11:47:09;;;;;;;2.37;1.50;;;;;;;30.20;22.47;101527.81;5313494;28;20270;-70
2023/06/14 11:49:41;;;;;;;3.27;1.50;;;;;;;29.96;22.62;101530.59;5310299;28;20027;-69
2023/06/14 11:52:12;;;;;;;1.70;1.23;;;;;;;29.99;22.63;101526.59;5288771;28;20353;-69